sensor_id;sensor_type;location;lat;lon;timestamp;P1;durP1;ratioP1;P2;durP2;ratioP2
6209;SDS011;3138;52.550;13.148;2023-12-20T00:00:20;11.57;;;8.50;;
6209;SDS011;3138;52.550;13.148;2023-12-20T00:02:47;11.13;;;9.73;;
6209;SDS011;3138;52.550;13.148;2023-12-20T00:05:14;16.33;;;9.97;;
6209;SDS011;3138;52.550;13.148;2023-12-20T00:07:41;11.37;;;10.03;;
6209;SDS011;3138;52.550;13.148;2023-12-20T00:10:07;10.40;;;9.20;;
6209;SDS011;3138;52.550;13.148;2023-12-20T00:12:36;11.83;;;10.43;;
6209;SDS011;3138;52.550;13.148;2023-12-20T00:15:03;10.30;;;9.20;;
6209;SDS011;3138;52.550;13.148;2023-12-20T00:17:31;10.57;;;9.07;;
6209;SDS011;3138;52.550;13.148;2023-12-20T00:19:57;11.30;;;9.50;;
6209;SDS011;3138;52.550;13.148;2023-12-20T00:22:24;11.00;;;9.90;;
6209;SDS011;3138;52.550;13.148;2023-12-20T00:24:51;11.00;;;9.83;;
6209;SDS011;3138;52.550;13.148;2023-12-20T00:27:18;13.40;;;10.33;;
6209;SDS011;3138;52.550;13.148;2023-12-20T00:29:46;12.37;;;9.80;;
6209;SDS011;3138;52.550;13.148;2023-12-20T00:32:15;9.50;;;8.33;;
6209;SDS011;3138;52.550;13.148;2023-12-20T00:34:42;12.63;;;9.83;;
6209;SDS011;3138;52.550;13.148;2023-12-20T00:37:09;12.50;;;9.87;;
6209;SDS011;3138;52.550;13.148;2023-12-20T00:39:36;11.83;;;10.43;;
6209;SDS011;3138;52.550;13.148;2023-12-20T00:42:02;12.80;;;11.13;;
6209;SDS011;3138;52.550;13.148;2023-12-20T00:44:30;12.40;;;10.67;;
6209;SDS011;3138;52.550;13.148;2023-12-20T00:46:58;12.80;;;10.63;;
6209;SDS011;3138;52.550;13.148;2023-12-20T00:49:26;12.03;;;10.83;;
6209;SDS011;3138;52.550;13.148;2023-12-20T00:51:52;13.60;;;10.83;;
6209;SDS011;3138;52.550;13.148;2023-12-20T00:54:19;14.17;;;10.73;;
6209;SDS011;3138;52.550;13.148;2023-12-20T00:56:46;12.13;;;10.27;;
6209;SDS011;3138;52.550;13.148;2023-12-20T00:59:13;15.77;;;10.47;;
6209;SDS011;3138;52.550;13.148;2023-12-20T01:01:40;14.47;;;11.10;;
6209;SDS011;3138;52.550;13.148;2023-12-20T01:04:08;15.23;;;11.80;;
6209;SDS011;3138;52.550;13.148;2023-12-20T01:06:35;15.60;;;11.30;;
6209;SDS011;3138;52.550;13.148;2023-12-20T01:09:02;13.73;;;11.17;;
6209;SDS011;3138;52.550;13.148;2023-12-20T01:11:29;15.80;;;11.70;;
6209;SDS011;3138;52.550;13.148;2023-12-20T01:13:56;14.00;;;11.27;;
6209;SDS011;3138;52.550;13.148;2023-12-20T01:16:22;10.90;;;9.70;;
6209;SDS011;3138;52.550;13.148;2023-12-20T01:18:49;12.63;;;11.30;;
6209;SDS011;3138;52.550;13.148;2023-12-20T01:21:17;14.40;;;9.87;;
6209;SDS011;3138;52.550;13.148;2023-12-20T01:23:44;13.00;;;11.60;;
6209;SDS011;3138;52.550;13.148;2023-12-20T01:26:11;15.33;;;12.00;;
6209;SDS011;3138;52.550;13.148;2023-12-20T01:28:38;14.00;;;11.60;;
6209;SDS011;3138;52.550;13.148;2023-12-20T01:31:05;12.50;;;10.60;;
6209;SDS011;3138;52.550;13.148;2023-12-20T01:33:31;13.70;;;10.63;;
6209;SDS011;3138;52.550;13.148;2023-12-20T01:35:58;12.10;;;10.30;;
6209;SDS011;3138;52.550;13.148;2023-12-20T01:38:26;17.03;;;9.70;;
6209;SDS011;3138;52.550;13.148;2023-12-20T01:40:53;12.80;;;10.10;;
6209;SDS011;3138;52.550;13.148;2023-12-20T01:43:20;11.07;;;9.00;;
6209;SDS011;3138;52.550;13.148;2023-12-20T01:45:47;10.40;;;8.27;;
6209;SDS011;3138;52.550;13.148;2023-12-20T01:48:14;9.13;;;8.23;;
6209;SDS011;3138;52.550;13.148;2023-12-20T01:50:42;10.37;;;8.03;;
6209;SDS011;3138;52.550;13.148;2023-12-20T01:53:10;8.93;;;7.30;;
6209;SDS011;3138;52.550;13.148;2023-12-20T01:55:40;7.93;;;7.13;;
6209;SDS011;3138;52.550;13.148;2023-12-20T01:58:08;6.73;;;6.03;;
6209;SDS011;3138;52.550;13.148;2023-12-20T02:00:36;6.50;;;5.80;;
6209;SDS011;3138;52.550;13.148;2023-12-20T02:03:03;5.70;;;5.17;;
6209;SDS011;3138;52.550;13.148;2023-12-20T02:05:31;7.80;;;5.60;;
6209;SDS011;3138;52.550;13.148;2023-12-20T02:07:58;5.40;;;4.97;;
6209;SDS011;3138;52.550;13.148;2023-12-20T02:10:25;6.93;;;5.50;;
6209;SDS011;3138;52.550;13.148;2023-12-20T02:12:55;7.30;;;6.60;;
6209;SDS011;3138;52.550;13.148;2023-12-20T02:15:22;7.30;;;6.60;;
6209;SDS011;3138;52.550;13.148;2023-12-20T02:17:49;9.10;;;6.30;;
6209;SDS011;3138;52.550;13.148;2023-12-20T02:20:16;7.13;;;6.43;;
6209;SDS011;3138;52.550;13.148;2023-12-20T02:22:44;8.07;;;7.30;;
6209;SDS011;3138;52.550;13.148;2023-12-20T02:25:11;9.77;;;8.77;;
6209;SDS011;3138;52.550;13.148;2023-12-20T02:27:38;13.07;;;9.70;;
6209;SDS011;3138;52.550;13.148;2023-12-20T02:30:06;10.00;;;8.43;;
6209;SDS011;3138;52.550;13.148;2023-12-20T02:32:33;13.00;;;9.40;;
6209;SDS011;3138;52.550;13.148;2023-12-20T02:35:00;20.30;;;9.37;;
6209;SDS011;3138;52.550;13.148;2023-12-20T02:37:27;12.23;;;8.60;;
6209;SDS011;3138;52.550;13.148;2023-12-20T02:39:56;9.93;;;8.97;;
6209;SDS011;3138;52.550;13.148;2023-12-20T02:42:25;11.40;;;8.73;;
6209;SDS011;3138;52.550;13.148;2023-12-20T02:44:52;11.83;;;8.07;;
6209;SDS011;3138;52.550;13.148;2023-12-20T02:47:18;12.90;;;8.73;;
6209;SDS011;3138;52.550;13.148;2023-12-20T02:49:45;10.07;;;8.30;;
6209;SDS011;3138;52.550;13.148;2023-12-20T02:52:12;18.23;;;7.07;;
6209;SDS011;3138;52.550;13.148;2023-12-20T02:54:39;13.30;;;7.80;;
6209;SDS011;3138;52.550;13.148;2023-12-20T02:57:07;6.57;;;5.93;;
6209;SDS011;3138;52.550;13.148;2023-12-20T02:59:34;13.53;;;6.03;;
6209;SDS011;3138;52.550;13.148;2023-12-20T03:02:01;9.60;;;5.80;;
6209;SDS011;3138;52.550;13.148;2023-12-20T03:04:27;6.87;;;4.53;;
6209;SDS011;3138;52.550;13.148;2023-12-20T03:06:54;7.97;;;4.90;;
6209;SDS011;3138;52.550;13.148;2023-12-20T03:09:21;8.60;;;5.10;;
6209;SDS011;3138;52.550;13.148;2023-12-20T03:11:48;20.37;;;4.23;;
6209;SDS011;3138;52.550;13.148;2023-12-20T03:14:16;16.77;;;4.67;;
6209;SDS011;3138;52.550;13.148;2023-12-20T03:16:46;15.30;;;4.10;;
6209;SDS011;3138;52.550;13.148;2023-12-20T03:19:13;22.80;;;5.67;;
6209;SDS011;3138;52.550;13.148;2023-12-20T03:21:41;9.30;;;3.57;;
6209;SDS011;3138;52.550;13.148;2023-12-20T03:24:07;7.60;;;4.30;;
6209;SDS011;3138;52.550;13.148;2023-12-20T03:26:34;9.40;;;2.87;;
6209;SDS011;3138;52.550;13.148;2023-12-20T03:29:01;7.00;;;3.53;;
6209;SDS011;3138;52.550;13.148;2023-12-20T03:31:29;17.90;;;3.03;;
6209;SDS011;3138;52.550;13.148;2023-12-20T03:33:56;9.47;;;2.70;;
6209;SDS011;3138;52.550;13.148;2023-12-20T03:36:23;16.33;;;2.60;;
6209;SDS011;3138;52.550;13.148;2023-12-20T03:38:49;12.73;;;2.80;;
6209;SDS011;3138;52.550;13.148;2023-12-20T03:41:16;9.10;;;2.43;;
6209;SDS011;3138;52.550;13.148;2023-12-20T03:43:43;6.53;;;3.07;;
6209;SDS011;3138;52.550;13.148;2023-12-20T03:46:10;5.27;;;1.87;;
6209;SDS011;3138;52.550;13.148;2023-12-20T03:48:38;8.90;;;2.97;;
6209;SDS011;3138;52.550;13.148;2023-12-20T03:51:05;11.67;;;2.20;;
6209;SDS011;3138;52.550;13.148;2023-12-20T03:53:32;21.30;;;2.97;;
6209;SDS011;3138;52.550;13.148;2023-12-20T03:55:58;12.80;;;2.50;;
6209;SDS011;3138;52.550;13.148;2023-12-20T03:58:25;18.03;;;3.87;;
6209;SDS011;3138;52.550;13.148;2023-12-20T04:00:52;8.50;;;2.23;;
6209;SDS011;3138;52.550;13.148;2023-12-20T04:03:19;12.13;;;3.07;;
6209;SDS011;3138;52.550;13.148;2023-12-20T04:05:47;13.00;;;2.57;;
6209;SDS011;3138;52.550;13.148;2023-12-20T04:08:14;24.97;;;4.17;;
6209;SDS011;3138;52.550;13.148;2023-12-20T04:10:41;10.37;;;2.83;;
6209;SDS011;3138;52.550;13.148;2023-12-20T04:13:07;13.93;;;2.97;;
6209;SDS011;3138;52.550;13.148;2023-12-20T04:15:34;29.57;;;2.80;;
6209;SDS011;3138;52.550;13.148;2023-12-20T04:18:01;13.80;;;3.10;;
6209;SDS011;3138;52.550;13.148;2023-12-20T04:20:28;13.60;;;3.73;;
6209;SDS011;3138;52.550;13.148;2023-12-20T04:22:56;9.87;;;2.90;;
6209;SDS011;3138;52.550;13.148;2023-12-20T04:25:23;16.70;;;4.27;;
6209;SDS011;3138;52.550;13.148;2023-12-20T04:27:50;23.87;;;3.47;;
6209;SDS011;3138;52.550;13.148;2023-12-20T04:30:16;20.93;;;3.30;;
6209;SDS011;3138;52.550;13.148;2023-12-20T04:32:43;13.60;;;3.00;;
6209;SDS011;3138;52.550;13.148;2023-12-20T04:35:10;16.77;;;3.57;;
6209;SDS011;3138;52.550;13.148;2023-12-20T04:37:37;12.90;;;3.30;;
6209;SDS011;3138;52.550;13.148;2023-12-20T04:40:06;18.53;;;1.93;;
6209;SDS011;3138;52.550;13.148;2023-12-20T04:42:33;23.60;;;3.77;;
6209;SDS011;3138;52.550;13.148;2023-12-20T04:45:00;14.37;;;3.30;;
6209;SDS011;3138;52.550;13.148;2023-12-20T04:47:28;12.83;;;2.90;;
6209;SDS011;3138;52.550;13.148;2023-12-20T04:49:54;13.90;;;2.80;;
6209;SDS011;3138;52.550;13.148;2023-12-20T04:52:21;11.03;;;3.30;;
6209;SDS011;3138;52.550;13.148;2023-12-20T04:54:48;8.67;;;3.63;;
6209;SDS011;3138;52.550;13.148;2023-12-20T04:57:16;25.70;;;2.97;;
6209;SDS011;3138;52.550;13.148;2023-12-20T04:59:43;20.77;;;3.03;;
6209;SDS011;3138;52.550;13.148;2023-12-20T05:02:10;10.37;;;2.00;;
6209;SDS011;3138;52.550;13.148;2023-12-20T05:04:37;23.97;;;4.73;;
6209;SDS011;3138;52.550;13.148;2023-12-20T05:07:04;17.40;;;3.33;;
6209;SDS011;3138;52.550;13.148;2023-12-20T05:09:31;14.37;;;2.80;;
6209;SDS011;3138;52.550;13.148;2023-12-20T05:11:58;22.77;;;3.40;;
6209;SDS011;3138;52.550;13.148;2023-12-20T05:14:26;20.80;;;2.67;;
6209;SDS011;3138;52.550;13.148;2023-12-20T05:16:53;9.20;;;2.47;;
6209;SDS011;3138;52.550;13.148;2023-12-20T05:19:21;16.53;;;3.30;;
6209;SDS011;3138;52.550;13.148;2023-12-20T05:21:48;21.53;;;3.00;;
6209;SDS011;3138;52.550;13.148;2023-12-20T05:24:15;18.57;;;2.60;;
6209;SDS011;3138;52.550;13.148;2023-12-20T05:26:42;21.93;;;2.33;;
6209;SDS011;3138;52.550;13.148;2023-12-20T05:29:09;16.60;;;2.70;;
6209;SDS011;3138;52.550;13.148;2023-12-20T05:31:37;21.57;;;3.77;;
6209;SDS011;3138;52.550;13.148;2023-12-20T05:34:04;12.70;;;2.03;;
6209;SDS011;3138;52.550;13.148;2023-12-20T05:36:30;14.33;;;2.63;;
6209;SDS011;3138;52.550;13.148;2023-12-20T05:38:57;27.73;;;3.40;;
6209;SDS011;3138;52.550;13.148;2023-12-20T05:41:24;19.30;;;2.80;;
6209;SDS011;3138;52.550;13.148;2023-12-20T05:43:51;25.73;;;2.80;;
6209;SDS011;3138;52.550;13.148;2023-12-20T05:46:18;16.87;;;2.03;;
6209;SDS011;3138;52.550;13.148;2023-12-20T05:48:47;18.13;;;2.40;;
6209;SDS011;3138;52.550;13.148;2023-12-20T05:51:14;33.33;;;3.30;;
6209;SDS011;3138;52.550;13.148;2023-12-20T05:53:41;11.03;;;3.10;;
6209;SDS011;3138;52.550;13.148;2023-12-20T05:56:09;19.00;;;3.47;;
6209;SDS011;3138;52.550;13.148;2023-12-20T05:58:35;15.93;;;3.00;;
6209;SDS011;3138;52.550;13.148;2023-12-20T06:01:03;36.27;;;3.00;;
6209;SDS011;3138;52.550;13.148;2023-12-20T06:03:30;25.17;;;4.30;;
6209;SDS011;3138;52.550;13.148;2023-12-20T06:05:58;15.40;;;2.23;;
6209;SDS011;3138;52.550;13.148;2023-12-20T06:08:26;16.50;;;2.77;;
6209;SDS011;3138;52.550;13.148;2023-12-20T06:10:52;20.77;;;3.27;;
6209;SDS011;3138;52.550;13.148;2023-12-20T06:13:19;26.70;;;4.07;;
6209;SDS011;3138;52.550;13.148;2023-12-20T06:15:46;13.53;;;3.53;;
6209;SDS011;3138;52.550;13.148;2023-12-20T06:18:13;17.53;;;3.93;;
6209;SDS011;3138;52.550;13.148;2023-12-20T06:20:40;20.13;;;2.37;;
6209;SDS011;3138;52.550;13.148;2023-12-20T06:23:08;11.87;;;2.37;;
6209;SDS011;3138;52.550;13.148;2023-12-20T06:25:35;32.87;;;4.67;;
6209;SDS011;3138;52.550;13.148;2023-12-20T06:28:01;13.83;;;3.23;;
6209;SDS011;3138;52.550;13.148;2023-12-20T06:30:28;23.33;;;3.33;;
6209;SDS011;3138;52.550;13.148;2023-12-20T06:32:57;20.17;;;3.40;;
6209;SDS011;3138;52.550;13.148;2023-12-20T06:35:24;10.03;;;3.00;;
6209;SDS011;3138;52.550;13.148;2023-12-20T06:37:51;13.03;;;3.33;;
6209;SDS011;3138;52.550;13.148;2023-12-20T06:40:19;38.27;;;4.70;;
6209;SDS011;3138;52.550;13.148;2023-12-20T06:42:46;22.13;;;3.70;;
6209;SDS011;3138;52.550;13.148;2023-12-20T06:45:13;17.43;;;2.50;;
6209;SDS011;3138;52.550;13.148;2023-12-20T06:47:40;14.33;;;2.90;;
6209;SDS011;3138;52.550;13.148;2023-12-20T06:50:07;22.70;;;3.63;;
6209;SDS011;3138;52.550;13.148;2023-12-20T06:52:34;22.47;;;3.30;;
6209;SDS011;3138;52.550;13.148;2023-12-20T06:55:01;13.23;;;2.30;;
6209;SDS011;3138;52.550;13.148;2023-12-20T06:57:29;30.73;;;3.30;;
6209;SDS011;3138;52.550;13.148;2023-12-20T06:59:56;10.33;;;3.43;;
6209;SDS011;3138;52.550;13.148;2023-12-20T07:02:23;17.03;;;3.03;;
6209;SDS011;3138;52.550;13.148;2023-12-20T07:04:50;24.60;;;3.63;;
6209;SDS011;3138;52.550;13.148;2023-12-20T07:07:17;11.57;;;3.43;;
6209;SDS011;3138;52.550;13.148;2023-12-20T07:09:44;46.07;;;4.00;;
6209;SDS011;3138;52.550;13.148;2023-12-20T07:12:11;14.27;;;3.73;;
6209;SDS011;3138;52.550;13.148;2023-12-20T07:14:39;32.17;;;4.93;;
6209;SDS011;3138;52.550;13.148;2023-12-20T07:17:06;17.80;;;3.50;;
6209;SDS011;3138;52.550;13.148;2023-12-20T07:19:36;6.00;;;2.80;;
6209;SDS011;3138;52.550;13.148;2023-12-20T07:22:03;16.63;;;2.73;;
6209;SDS011;3138;52.550;13.148;2023-12-20T07:24:30;15.90;;;2.90;;
6209;SDS011;3138;52.550;13.148;2023-12-20T07:26:57;21.60;;;4.33;;
6209;SDS011;3138;52.550;13.148;2023-12-20T07:29:24;11.53;;;3.30;;
6209;SDS011;3138;52.550;13.148;2023-12-20T07:31:52;20.63;;;4.03;;
6209;SDS011;3138;52.550;13.148;2023-12-20T07:34:19;30.47;;;4.90;;
6209;SDS011;3138;52.550;13.148;2023-12-20T07:36:46;15.20;;;3.70;;
6209;SDS011;3138;52.550;13.148;2023-12-20T07:39:13;18.00;;;3.90;;
6209;SDS011;3138;52.550;13.148;2023-12-20T07:41:40;21.17;;;4.83;;
6209;SDS011;3138;52.550;13.148;2023-12-20T07:44:07;22.13;;;3.70;;
6209;SDS011;3138;52.550;13.148;2023-12-20T07:46:34;11.30;;;3.00;;
6209;SDS011;3138;52.550;13.148;2023-12-20T07:49:02;25.80;;;4.43;;
6209;SDS011;3138;52.550;13.148;2023-12-20T07:51:30;14.90;;;2.90;;
6209;SDS011;3138;52.550;13.148;2023-12-20T07:53:56;22.43;;;3.10;;
6209;SDS011;3138;52.550;13.148;2023-12-20T07:56:23;16.60;;;2.37;;
6209;SDS011;3138;52.550;13.148;2023-12-20T07:58:50;22.83;;;2.93;;
6209;SDS011;3138;52.550;13.148;2023-12-20T08:01:17;17.43;;;2.70;;
6209;SDS011;3138;52.550;13.148;2023-12-20T08:03:43;19.47;;;3.73;;
6209;SDS011;3138;52.550;13.148;2023-12-20T08:06:11;13.80;;;2.70;;
6209;SDS011;3138;52.550;13.148;2023-12-20T08:08:38;15.33;;;3.70;;
6209;SDS011;3138;52.550;13.148;2023-12-20T08:11:05;15.57;;;2.37;;
6209;SDS011;3138;52.550;13.148;2023-12-20T08:13:32;12.23;;;3.53;;
6209;SDS011;3138;52.550;13.148;2023-12-20T08:15:58;18.03;;;3.53;;
6209;SDS011;3138;52.550;13.148;2023-12-20T08:18:28;18.23;;;3.00;;
6209;SDS011;3138;52.550;13.148;2023-12-20T08:20:54;11.90;;;2.67;;
6209;SDS011;3138;52.550;13.148;2023-12-20T08:23:23;12.70;;;2.27;;
6209;SDS011;3138;52.550;13.148;2023-12-20T08:25:49;5.93;;;2.43;;
6209;SDS011;3138;52.550;13.148;2023-12-20T08:28:16;21.07;;;3.80;;
6209;SDS011;3138;52.550;13.148;2023-12-20T08:30:43;14.60;;;3.23;;
6209;SDS011;3138;52.550;13.148;2023-12-20T08:33:10;17.07;;;3.03;;
6209;SDS011;3138;52.550;13.148;2023-12-20T08:35:38;16.77;;;3.53;;
6209;SDS011;3138;52.550;13.148;2023-12-20T08:38:05;15.23;;;2.83;;
6209;SDS011;3138;52.550;13.148;2023-12-20T08:40:33;18.83;;;2.77;;
6209;SDS011;3138;52.550;13.148;2023-12-20T08:43:00;18.50;;;2.50;;
6209;SDS011;3138;52.550;13.148;2023-12-20T08:45:27;21.77;;;2.77;;
6209;SDS011;3138;52.550;13.148;2023-12-20T08:47:54;18.80;;;3.57;;
6209;SDS011;3138;52.550;13.148;2023-12-20T08:50:21;12.00;;;2.60;;
6209;SDS011;3138;52.550;13.148;2023-12-20T08:52:48;15.60;;;3.43;;
6209;SDS011;3138;52.550;13.148;2023-12-20T08:55:15;22.07;;;2.90;;
6209;SDS011;3138;52.550;13.148;2023-12-20T08:57:44;5.70;;;1.83;;
6209;SDS011;3138;52.550;13.148;2023-12-20T09:00:12;18.83;;;3.17;;
6209;SDS011;3138;52.550;13.148;2023-12-20T09:02:41;14.10;;;2.77;;
6209;SDS011;3138;52.550;13.148;2023-12-20T09:05:08;15.03;;;2.67;;
6209;SDS011;3138;52.550;13.148;2023-12-20T09:07:34;24.00;;;3.70;;
6209;SDS011;3138;52.550;13.148;2023-12-20T09:10:01;20.20;;;3.33;;
6209;SDS011;3138;52.550;13.148;2023-12-20T09:12:28;15.87;;;2.40;;
6209;SDS011;3138;52.550;13.148;2023-12-20T09:14:57;21.53;;;3.70;;
6209;SDS011;3138;52.550;13.148;2023-12-20T09:17:23;18.57;;;2.83;;
6209;SDS011;3138;52.550;13.148;2023-12-20T09:19:50;23.03;;;2.90;;
6209;SDS011;3138;52.550;13.148;2023-12-20T09:22:19;12.93;;;2.43;;
6209;SDS011;3138;52.550;13.148;2023-12-20T09:24:45;17.93;;;2.80;;
6209;SDS011;3138;52.550;13.148;2023-12-20T09:27:12;23.77;;;3.10;;
6209;SDS011;3138;52.550;13.148;2023-12-20T09:29:39;14.27;;;2.93;;
6209;SDS011;3138;52.550;13.148;2023-12-20T09:32:07;19.03;;;2.87;;
6209;SDS011;3138;52.550;13.148;2023-12-20T09:34:34;20.23;;;3.40;;
6209;SDS011;3138;52.550;13.148;2023-12-20T09:37:02;18.13;;;3.47;;
6209;SDS011;3138;52.550;13.148;2023-12-20T09:39:30;37.00;;;4.67;;
6209;SDS011;3138;52.550;13.148;2023-12-20T09:42:00;13.17;;;2.60;;
6209;SDS011;3138;52.550;13.148;2023-12-20T09:44:28;19.63;;;3.30;;
6209;SDS011;3138;52.550;13.148;2023-12-20T09:46:55;14.37;;;3.10;;
6209;SDS011;3138;52.550;13.148;2023-12-20T09:49:24;21.10;;;4.53;;
6209;SDS011;3138;52.550;13.148;2023-12-20T09:51:53;15.47;;;2.70;;
6209;SDS011;3138;52.550;13.148;2023-12-20T09:54:21;16.23;;;3.40;;
6209;SDS011;3138;52.550;13.148;2023-12-20T09:56:48;18.27;;;3.10;;
6209;SDS011;3138;52.550;13.148;2023-12-20T09:59:15;21.07;;;3.50;;
6209;SDS011;3138;52.550;13.148;2023-12-20T10:01:42;21.03;;;3.80;;
6209;SDS011;3138;52.550;13.148;2023-12-20T10:04:10;16.37;;;3.17;;
6209;SDS011;3138;52.550;13.148;2023-12-20T10:06:40;19.50;;;3.40;;
6209;SDS011;3138;52.550;13.148;2023-12-20T10:09:07;12.70;;;2.60;;
6209;SDS011;3138;52.550;13.148;2023-12-20T10:11:35;32.07;;;4.77;;
6209;SDS011;3138;52.550;13.148;2023-12-20T10:14:03;15.67;;;5.30;;
6209;SDS011;3138;52.550;13.148;2023-12-20T10:16:31;19.33;;;3.80;;
6209;SDS011;3138;52.550;13.148;2023-12-20T10:18:59;19.50;;;3.57;;
6209;SDS011;3138;52.550;13.148;2023-12-20T10:21:27;22.53;;;4.13;;
6209;SDS011;3138;52.550;13.148;2023-12-20T10:23:55;12.80;;;3.70;;
6209;SDS011;3138;52.550;13.148;2023-12-20T10:26:24;22.87;;;4.27;;
6209;SDS011;3138;52.550;13.148;2023-12-20T10:28:52;14.60;;;2.83;;
6209;SDS011;3138;52.550;13.148;2023-12-20T10:31:26;19.37;;;3.00;;
6209;SDS011;3138;52.550;13.148;2023-12-20T10:33:55;16.10;;;3.43;;
6209;SDS011;3138;52.550;13.148;2023-12-20T10:36:23;26.50;;;3.30;;
6209;SDS011;3138;52.550;13.148;2023-12-20T10:38:51;14.23;;;3.30;;
6209;SDS011;3138;52.550;13.148;2023-12-20T10:41:22;16.40;;;3.37;;
6209;SDS011;3138;52.550;13.148;2023-12-20T10:43:52;19.77;;;4.30;;
6209;SDS011;3138;52.550;13.148;2023-12-20T10:46:22;31.87;;;3.53;;
6209;SDS011;3138;52.550;13.148;2023-12-20T10:48:51;27.10;;;3.50;;
6209;SDS011;3138;52.550;13.148;2023-12-20T10:51:20;18.47;;;4.20;;
6209;SDS011;3138;52.550;13.148;2023-12-20T10:53:47;32.33;;;4.83;;
6209;SDS011;3138;52.550;13.148;2023-12-20T10:56:15;16.40;;;4.03;;
6209;SDS011;3138;52.550;13.148;2023-12-20T10:58:46;27.03;;;3.90;;
6209;SDS011;3138;52.550;13.148;2023-12-20T11:01:13;28.93;;;3.90;;
6209;SDS011;3138;52.550;13.148;2023-12-20T11:03:43;23.30;;;4.17;;
6209;SDS011;3138;52.550;13.148;2023-12-20T11:06:14;26.77;;;3.77;;
6209;SDS011;3138;52.550;13.148;2023-12-20T11:08:51;19.07;;;3.17;;
6209;SDS011;3138;52.550;13.148;2023-12-20T11:11:23;31.47;;;4.53;;
6209;SDS011;3138;52.550;13.148;2023-12-20T11:13:58;11.03;;;2.70;;
6209;SDS011;3138;52.550;13.148;2023-12-20T11:16:28;25.60;;;3.43;;
6209;SDS011;3138;52.550;13.148;2023-12-20T11:18:57;39.83;;;4.60;;
6209;SDS011;3138;52.550;13.148;2023-12-20T11:21:24;28.17;;;5.37;;
6209;SDS011;3138;52.550;13.148;2023-12-20T11:23:50;10.60;;;3.53;;
6209;SDS011;3138;52.550;13.148;2023-12-20T11:26:22;27.47;;;4.07;;
6209;SDS011;3138;52.550;13.148;2023-12-20T11:28:52;16.30;;;3.70;;
6209;SDS011;3138;52.550;13.148;2023-12-20T11:31:20;13.70;;;3.10;;
6209;SDS011;3138;52.550;13.148;2023-12-20T11:33:47;12.13;;;2.77;;
6209;SDS011;3138;52.550;13.148;2023-12-20T11:36:18;14.03;;;3.33;;
6209;SDS011;3138;52.550;13.148;2023-12-20T11:38:53;28.97;;;4.83;;
6209;SDS011;3138;52.550;13.148;2023-12-20T11:41:22;19.80;;;3.57;;
6209;SDS011;3138;52.550;13.148;2023-12-20T11:43:49;32.00;;;3.37;;
6209;SDS011;3138;52.550;13.148;2023-12-20T11:46:21;22.07;;;3.20;;
6209;SDS011;3138;52.550;13.148;2023-12-20T11:48:48;23.00;;;4.43;;
6209;SDS011;3138;52.550;13.148;2023-12-20T11:51:15;18.73;;;3.50;;
6209;SDS011;3138;52.550;13.148;2023-12-20T11:53:42;16.90;;;3.37;;
6209;SDS011;3138;52.550;13.148;2023-12-20T11:56:09;13.53;;;3.60;;
6209;SDS011;3138;52.550;13.148;2023-12-20T11:58:37;16.60;;;3.30;;
6209;SDS011;3138;52.550;13.148;2023-12-20T12:01:04;20.97;;;3.93;;
6209;SDS011;3138;52.550;13.148;2023-12-20T12:03:33;14.77;;;3.97;;
6209;SDS011;3138;52.550;13.148;2023-12-20T12:06:01;19.07;;;3.23;;
6209;SDS011;3138;52.550;13.148;2023-12-20T12:08:29;18.77;;;4.47;;
6209;SDS011;3138;52.550;13.148;2023-12-20T12:10:56;13.73;;;3.77;;
6209;SDS011;3138;52.550;13.148;2023-12-20T12:13:23;6.43;;;2.07;;
6209;SDS011;3138;52.550;13.148;2023-12-20T12:15:52;20.80;;;2.90;;
6209;SDS011;3138;52.550;13.148;2023-12-20T12:18:19;13.60;;;3.00;;
6209;SDS011;3138;52.550;13.148;2023-12-20T12:20:48;15.23;;;3.87;;
6209;SDS011;3138;52.550;13.148;2023-12-20T12:23:15;16.47;;;3.00;;
6209;SDS011;3138;52.550;13.148;2023-12-20T12:25:49;17.77;;;4.27;;
6209;SDS011;3138;52.550;13.148;2023-12-20T12:28:16;19.17;;;3.27;;
6209;SDS011;3138;52.550;13.148;2023-12-20T12:30:43;18.00;;;4.13;;
6209;SDS011;3138;52.550;13.148;2023-12-20T12:33:22;15.77;;;3.53;;
6209;SDS011;3138;52.550;13.148;2023-12-20T12:35:52;11.17;;;3.77;;
6209;SDS011;3138;52.550;13.148;2023-12-20T12:38:19;20.70;;;4.00;;
6209;SDS011;3138;52.550;13.148;2023-12-20T12:40:46;15.53;;;3.27;;
6209;SDS011;3138;52.550;13.148;2023-12-20T12:43:13;22.40;;;3.50;;
6209;SDS011;3138;52.550;13.148;2023-12-20T12:45:40;28.07;;;4.53;;
6209;SDS011;3138;52.550;13.148;2023-12-20T12:48:08;18.23;;;3.53;;
6209;SDS011;3138;52.550;13.148;2023-12-20T12:50:35;14.40;;;3.50;;
6209;SDS011;3138;52.550;13.148;2023-12-20T12:53:03;24.63;;;4.27;;
6209;SDS011;3138;52.550;13.148;2023-12-20T12:55:30;11.53;;;3.03;;
6209;SDS011;3138;52.550;13.148;2023-12-20T12:57:57;17.20;;;4.20;;
6209;SDS011;3138;52.550;13.148;2023-12-20T13:00:24;18.07;;;3.23;;
6209;SDS011;3138;52.550;13.148;2023-12-20T13:02:51;13.77;;;3.60;;
6209;SDS011;3138;52.550;13.148;2023-12-20T13:05:18;19.47;;;4.33;;
6209;SDS011;3138;52.550;13.148;2023-12-20T13:07:44;22.83;;;3.63;;
6209;SDS011;3138;52.550;13.148;2023-12-20T13:10:14;22.63;;;4.60;;
6209;SDS011;3138;52.550;13.148;2023-12-20T13:12:41;12.97;;;3.67;;
6209;SDS011;3138;52.550;13.148;2023-12-20T13:15:08;11.63;;;2.80;;
6209;SDS011;3138;52.550;13.148;2023-12-20T13:17:35;8.70;;;2.03;;
6209;SDS011;3138;52.550;13.148;2023-12-20T13:20:02;6.30;;;1.63;;
6209;SDS011;3138;52.550;13.148;2023-12-20T13:22:30;5.63;;;1.83;;
6209;SDS011;3138;52.550;13.148;2023-12-20T13:24:57;4.97;;;1.60;;
6209;SDS011;3138;52.550;13.148;2023-12-20T13:27:25;3.10;;;1.50;;
6209;SDS011;3138;52.550;13.148;2023-12-20T13:29:53;14.23;;;1.93;;
6209;SDS011;3138;52.550;13.148;2023-12-20T13:32:19;2.90;;;1.30;;
6209;SDS011;3138;52.550;13.148;2023-12-20T13:34:46;7.97;;;2.03;;
6209;SDS011;3138;52.550;13.148;2023-12-20T13:37:13;1.03;;;0.90;;
6209;SDS011;3138;52.550;13.148;2023-12-20T13:39:40;0.93;;;0.90;;
6209;SDS011;3138;52.550;13.148;2023-12-20T13:42:07;8.10;;;0.83;;
6209;SDS011;3138;52.550;13.148;2023-12-20T13:44:35;1.00;;;0.90;;
6209;SDS011;3138;52.550;13.148;2023-12-20T13:47:02;3.90;;;1.10;;
6209;SDS011;3138;52.550;13.148;2023-12-20T13:49:29;1.77;;;1.13;;
6209;SDS011;3138;52.550;13.148;2023-12-20T13:51:56;2.80;;;1.70;;
6209;SDS011;3138;52.550;13.148;2023-12-20T13:54:23;2.43;;;1.10;;
6209;SDS011;3138;52.550;13.148;2023-12-20T13:56:51;9.70;;;1.13;;
6209;SDS011;3138;52.550;13.148;2023-12-20T13:59:18;5.37;;;1.17;;
6209;SDS011;3138;52.550;13.148;2023-12-20T14:01:46;1.90;;;1.13;;
6209;SDS011;3138;52.550;13.148;2023-12-20T14:04:14;3.37;;;1.00;;
6209;SDS011;3138;52.550;13.148;2023-12-20T14:06:41;0.77;;;0.70;;
6209;SDS011;3138;52.550;13.148;2023-12-20T14:09:08;4.60;;;0.97;;
6209;SDS011;3138;52.550;13.148;2023-12-20T14:11:37;1.00;;;0.90;;
6209;SDS011;3138;52.550;13.148;2023-12-20T14:14:06;1.77;;;0.73;;
6209;SDS011;3138;52.550;13.148;2023-12-20T14:16:33;1.93;;;0.90;;
6209;SDS011;3138;52.550;13.148;2023-12-20T14:19:01;0.60;;;0.60;;
6209;SDS011;3138;52.550;13.148;2023-12-20T14:21:28;5.90;;;1.23;;
6209;SDS011;3138;52.550;13.148;2023-12-20T14:23:55;2.63;;;0.70;;
6209;SDS011;3138;52.550;13.148;2023-12-20T14:26:22;1.70;;;0.80;;
6209;SDS011;3138;52.550;13.148;2023-12-20T14:28:49;1.70;;;0.73;;
6209;SDS011;3138;52.550;13.148;2023-12-20T14:31:15;4.17;;;0.90;;
6209;SDS011;3138;52.550;13.148;2023-12-20T14:33:42;1.97;;;0.80;;
6209;SDS011;3138;52.550;13.148;2023-12-20T14:36:10;1.60;;;0.70;;
6209;SDS011;3138;52.550;13.148;2023-12-20T14:38:37;4.30;;;0.80;;
6209;SDS011;3138;52.550;13.148;2023-12-20T14:41:04;3.10;;;0.83;;
6209;SDS011;3138;52.550;13.148;2023-12-20T14:43:33;3.83;;;0.83;;
6209;SDS011;3138;52.550;13.148;2023-12-20T14:46:00;1.93;;;0.60;;
6209;SDS011;3138;52.550;13.148;2023-12-20T14:48:27;1.80;;;0.93;;
6209;SDS011;3138;52.550;13.148;2023-12-20T14:50:54;3.30;;;0.70;;